createdAt,value
2022-10-18T00:05:09.329Z,68.95
2022-10-18T00:11:12.109Z,70.51
2022-10-18T00:17:14.092Z,76.46
2022-10-18T00:23:15.927Z,77.06
2022-10-18T00:29:18.133Z,75.15
2022-10-18T00:35:30.027Z,72.54
2022-10-18T00:41:38.692Z,70.91
2022-10-18T00:47:41.935Z,77.23
2022-10-18T00:53:44.001Z,80.29
2022-10-18T00:59:47.046Z,73.20
2022-10-18T01:05:49.293Z,75.70
2022-10-18T01:12:18.045Z,72.14
2022-10-18T01:18:47.914Z,71.86
2022-10-18T01:25:17.925Z,79.89
2022-10-18T01:31:48.234Z,79.56
2022-10-18T01:37:52.509Z,73.91
2022-10-18T01:44:02.074Z,73.30
2022-10-18T01:50:07.158Z,71.44
2022-10-18T01:56:46.483Z,72.20
2022-10-18T02:03:02.613Z,71.43
2022-10-18T02:09:19.539Z,71.83
2022-10-18T02:15:27.422Z,73.02
2022-10-18T02:21:30.539Z,71.28
2022-10-18T02:27:32.717Z,71.45
2022-10-18T02:34:12.420Z,71.25
2022-10-18T02:40:20.457Z,71.57
2022-10-18T02:46:23.231Z,72.46
2022-10-18T02:52:25.177Z,75.30
2022-10-18T02:58:26.990Z,73.08
2022-10-18T03:10:30.822Z,73.51
2022-10-18T03:16:34.444Z,73.51
2022-10-18T03:22:36.310Z,77.55
2022-10-18T03:28:38.214Z,73.25
2022-10-18T03:34:40.366Z,72.99
2022-10-18T03:40:42.472Z,72.57
2022-10-18T03:46:47.280Z,73.11
2022-10-18T03:52:49.185Z,75.15
2022-10-18T03:58:51.287Z,74.80
2022-10-18T04:04:53.482Z,72.58
2022-10-18T04:11:09.560Z,73.29
2022-10-18T04:36:25.403Z,78.82
2022-10-18T04:49:02.139Z,80.05
2022-10-18T05:20:27.636Z,74.31
2022-10-18T05:26:42.397Z,75.69
2022-10-18T06:36:45.839Z,73.29
2022-10-18T06:49:19.298Z,71.98
2022-10-18T06:55:39.086Z,71.45
2022-10-18T07:14:58.338Z,70.51
2022-10-18T10:20:38.685Z,44.47
2022-10-18T10:46:58.998Z,41.86
2022-10-18T10:53:24.815Z,41.64
2022-10-18T11:26:59.256Z,37.03
2022-10-18T11:46:26.509Z,35.23
2022-10-18T11:53:07.898Z,34.08
2022-10-18T12:05:59.027Z,32.00
2022-10-18T12:12:37.901Z,30.13
2022-10-18T12:18:58.193Z,27.99
2022-10-18T12:25:13.958Z,28.10
2022-10-18T12:31:57.966Z,27.15
2022-10-18T12:38:19.588Z,26.30
2022-10-18T12:44:44.918Z,25.99
2022-10-18T12:50:59.918Z,26.19
2022-10-18T13:03:27.336Z,25.24
2022-10-18T13:09:42.994Z,25.38
2022-10-18T13:16:12.588Z,25.84
2022-10-18T13:22:55.732Z,25.98
2022-10-18T13:29:25.036Z,26.92
2022-10-18T13:48:48.030Z,27.50
2022-10-18T14:15:31.948Z,26.08
2022-10-18T14:21:45.193Z,26.14
2022-10-18T14:28:31.364Z,26.56
2022-10-18T14:34:48.045Z,26.70
2022-10-18T14:47:46.594Z,29.01
2022-10-18T14:54:06.774Z,29.54
2022-10-18T15:00:18.975Z,29.63
2022-10-18T15:06:24.817Z,30.82
2022-10-18T15:13:08.799Z,33.04
2022-10-18T20:03:33.278Z,65.22
2022-10-18T20:29:52.906Z,60.63
2022-10-18T22:43:55.538Z,72.45
2022-10-18T22:49:59.167Z,71.42
2022-10-18T23:08:36.562Z,75.96
